Jack Brusco — WDC3066 — position and weather

sailwx.info

Track history (hours):
 
Tides and Currents Weather Stations Pressure Air Temp Water Temp Dewpoint Dewpoint Depression Visibility Wind Speed Wind Dir Waves Ship Positions

Jack Brusco

Owner: Brusco Tug & Barge, Inc., Longview, WA. More information available from US FCC via Universal Licensing System and Coast Guard Vessel Documentation Center.

Last reported at 2018-Apr-19 10:01 UTC. Time now 2018-Apr-19 10:24 UTC.
Position N 46°51' W 124°16'.

Length 36 m; draft 5.2 m.

Type: Tug. MMSI: 3699086.

Date/timePositionNaut miles runAvg speedWind from/ knotsBaromVisibWave heightAir tempDewpointWater temp
2018-Apr-19 10:01N 46°51' W 124°16'4 7.5
2018-Apr-19 09:31N 46°54' W 124°12'3 5.3
2018-Apr-19 09:00N 46°55' W 124°09'1 0.0
2018-Apr-17 19:58N 46°55' W 124°10'3 3.3
2018-Apr-17 19:10N 46°53' W 124°13'1 3.1
2018-Apr-17 19:01N 46°53' W 124°13'2 3.5
2018-Apr-17 18:28N 46°52' W 124°15'2 3.6
2018-Apr-17 18:01N 46°51' W 124°17'2 3.2
2018-Apr-17 17:29N 46°50' W 124°19'1 2.8
2018-Apr-17 17:00N 46°49' W 124°21'2 2.9
2018-Apr-17 16:15N 46°47' W 124°23'1 2.9
2018-Apr-17 16:01N 46°47' W 124°24'2 3.0
2018-Apr-17 15:30N 46°46' W 124°26'2 3.9
2018-Apr-17 15:01N 46°44' W 124°27'1 3.0
2018-Apr-17 14:30N 46°43' W 124°26'1 2.5
2018-Apr-17 14:01N 46°42' W 124°26'1 2.6
2018-Apr-17 13:30N 46°40' W 124°25'2 3.2
2018-Apr-17 12:53N 46°38' W 124°25'2 6.0
2018-Apr-17 12:31N 46°36' W 124°24'3 6.7
2018-Apr-17 12:01N 46°33' W 124°23'4 7.0
2018-Apr-17 11:30N 46°29' W 124°22'4 6.9
2018-Apr-17 10:52N 46°25' W 124°21'3 7.1
2018-Apr-17 10:30N 46°23' W 124°20'3 6.8
2018-Apr-17 10:00N 46°19' W 124°19'3 6.5
2018-Apr-17 09:30N 46°16' W 124°18'3 4.9
2018-Apr-17 08:51N 46°13' W 124°16'2 5.3
2018-Apr-17 08:31N 46°13' W 124°13'3 5.1
2018-Apr-17 07:59N 46°13' W 124°09'3 6.1
2018-Apr-17 07:31N 46°15' W 124°06'3 4.9
2018-Apr-17 06:50N 46°15' W 124°01'2 6.2
2018-Apr-17 06:31N 46°14' W 123°59'9 7.9
2018-Apr-17 05:21N 46°13' W 123°46'411.2
2018-Apr-17 05:01N 46°15' W 123°41'612.1
2018-Apr-17 04:30N 46°16' W 123°33'510.3
2018-Apr-17 04:00N 46°14' W 123°26'611.4
2018-Apr-17 03:31N 46°09' W 123°21'612.5
2018-Apr-17 03:01N 46°10' W 123°13'611.4
2018-Apr-17 02:30N 46°10' W 123°05'510.6
2018-Apr-17 02:00N 46°07' W 122°58'0 0.3
2018-Apr-17 01:30N 46°07' W 122°58'1 1.0
2018-Apr-17 01:00N 46°06' W 122°58'1 0.9
2018-Apr-17 00:23N 46°06' W 122°57'2 5.6
2018-Apr-17 00:00N 46°08' W 122°60'4 6.5
2018-Apr-16 23:24N 46°10' W 123°04'3 6.9
2018-Apr-16 23:00N 46°11' W 123°08'3 6.6
2018-Apr-16 22:30N 46°11' W 123°12'4 7.1
2018-Apr-16 22:00N 46°09' W 123°17'4 7.4
2018-Apr-16 21:31N 46°09' W 123°22'4 7.1
2018-Apr-16 21:00N 46°11' W 123°26'5 7.2
2018-Apr-16 20:21N 46°16' W 123°28'3 7.4
2018-Apr-16 20:00N 46°16' W 123°31'4 8.1
2018-Apr-16 19:28N 46°16' W 123°38'4 8.2
2018-Apr-16 19:01N 46°14' W 123°43'4 8.8
2018-Apr-16 18:30N 46°12' W 123°48'4 8.8
2018-Apr-16 18:01N 46°11' W 123°55'5 9.0
2018-Apr-16 17:31N 46°14' W 123°60'3 6.6
2018-Apr-16 17:01N 46°15' W 124°04'3 5.4
2018-Apr-16 16:22N 46°13' W 124°08'2 3.5
2018-Apr-16 15:54N 46°13' W 124°10'1 2.4
2018-Apr-16 15:30N 46°13' W 124°12'1 2.2
2018-Apr-16 15:01N 46°13' W 124°13'1 1.9
2018-Apr-16 14:31N 46°13' W 124°15'1 2.7
2018-Apr-16 14:00N 46°13' W 124°17'3 5.5
2018-Apr-16 13:31N 46°16' W 124°19'3 6.1
2018-Apr-16 13:01N 46°19' W 124°19'3 6.2
2018-Apr-16 12:30N 46°22' W 124°20'4 7.2
2018-Apr-16 12:00N 46°25' W 124°21'4 7.2
2018-Apr-16 11:31N 46°29' W 124°22'4 7.4
2018-Apr-16 11:00N 46°32' W 124°23'4 7.2
2018-Apr-16 10:31N 46°36' W 124°24'4 7.6
2018-Apr-16 10:01N 46°40' W 124°25'4 7.3
2018-Apr-16 09:30N 46°43' W 124°26'3 6.3
2018-Apr-16 09:01N 46°46' W 124°25'3 6.2
2018-Apr-16 08:31N 46°48' W 124°22'3 6.1
2018-Apr-16 08:00N 46°50' W 124°18'3 5.9
2018-Apr-16 07:30N 46°52' W 124°15'3 6.4
2018-Apr-16 07:01N 46°54' W 124°12'2 3.7
2018-Apr-16 06:30N 46°55' W 124°09'10 0.7
2018-Apr-15 15:20N 46°58' W 123°55'9 0.7
2018-Apr-15 03:26N 46°55' W 124°07'3 6.9
2018-Apr-15 03:01N 46°55' W 124°11'3 6.2
2018-Apr-15 02:30N 46°52' W 124°14'5 9.2
2018-Apr-15 02:00N 46°50' W 124°20'5 9.4
2018-Apr-15 01:30N 46°46' W 124°25'4 8.8
2018-Apr-15 01:01N 46°42' W 124°25'5 9.5
2018-Apr-15 00:30N 46°37' W 124°25'4 8.7
2018-Apr-15 00:01N 46°33' W 124°24'4 8.9
2018-Apr-14 23:31N 46°29' W 124°22'5 9.6
2018-Apr-14 23:01N 46°24' W 124°21'5 9.6
2018-Apr-14 22:30N 46°19' W 124°19'5 9.3
2018-Apr-14 22:01N 46°15' W 124°17'4 7.4
2018-Apr-14 21:31N 46°13' W 124°13'3 5.7
2018-Apr-14 21:00N 46°13' W 124°09'2 4.5
2018-Apr-14 20:31N 46°15' W 124°06'3 5.3
2018-Apr-14 20:00N 46°15' W 124°03'4 7.3
2018-Apr-14 19:31N 46°14' W 123°58'4 8.3
2018-Apr-14 19:00N 46°11' W 123°53'4 8.4
2018-Apr-14 18:30N 46°13' W 123°47'4 8.9
2018-Apr-14 18:00N 46°15' W 123°42'510.0
2018-Apr-14 17:30N 46°15' W 123°34'510.2
2018-Apr-14 17:00N 46°15' W 123°27'4 8.2
2018-Apr-14 16:31N 46°12' W 123°23'0 0.1
2018-Apr-14 16:01N 46°12' W 123°23'0 0.2
2018-Apr-14 15:31N 46°12' W 123°23'0 0.0
2018-Apr-14 14:57N 46°12' W 123°23'0 0.0
2018-Apr-14 14:29N 46°12' W 123°23'0 0.0
2018-Apr-14 13:59N 46°12' W 123°23'0 0.0
2018-Apr-14 13:30N 46°12' W 123°23'0 0.0
2018-Apr-14 12:57N 46°12' W 123°23'0 0.0
2018-Apr-14 12:30N 46°12' W 123°23'0 0.0
2018-Apr-14 12:00N 46°12' W 123°23'0 0.0
2018-Apr-14 11:30N 46°12' W 123°23'0 0.0
2018-Apr-14 10:59N 46°12' W 123°23'0 0.0
2018-Apr-14 10:02N 46°12' W 123°23'0 0.0
2018-Apr-14 09:59N 46°12' W 123°23'0 0.0
2018-Apr-14 09:29N 46°12' W 123°23'0 0.0
2018-Apr-14 08:53N 46°12' W 123°23'0 0.0
2018-Apr-14 08:24N 46°12' W 123°23'0 0.0
2018-Apr-14 07:57N 46°12' W 123°23'0 0.0
2018-Apr-14 07:30N 46°12' W 123°23'0 0.0
2018-Apr-14 07:00N 46°12' W 123°23'0 0.0
2018-Apr-14 06:27N 46°12' W 123°23'0 0.0
2018-Apr-14 05:42N 46°12' W 123°23'0 0.0
2018-Apr-14 05:30N 46°12' W 123°23'0 0.0
2018-Apr-14 04:54N 46°12' W 123°23'0 0.0
2018-Apr-14 04:22N 46°12' W 123°23'0 0.0
2018-Apr-14 03:46N 46°12' W 123°23'0 0.0
2018-Apr-14 03:25N 46°12' W 123°23'0 0.0
2018-Apr-14 02:55N 46°12' W 123°23'0 0.0
2018-Apr-14 02:28N 46°12' W 123°23'0 0.0
2018-Apr-14 01:59N 46°12' W 123°23'0 0.0
2018-Apr-14 01:21N 46°12' W 123°23'0 0.0
2018-Apr-14 00:57N 46°12' W 123°23'0 0.0
2018-Apr-14 00:29N 46°12' W 123°23'0 0.0
2018-Apr-13 23:59N 46°12' W 123°23'0 0.0
2018-Apr-13 22:50N 46°12' W 123°23'0 0.0
2018-Apr-13 22:29N 46°12' W 123°23'0 0.0
2018-Apr-13 21:55N 46°12' W 123°23'0 0.0
2018-Apr-13 21:28N 46°12' W 123°23'0 0.0
2018-Apr-13 20:55N 46°12' W 123°23'0 0.0
2018-Apr-13 20:28N 46°12' W 123°23'0 0.0
2018-Apr-13 19:58N 46°12' W 123°23'0 0.0
2018-Apr-13 19:28N 46°12' W 123°23'0 0.0
2018-Apr-13 18:58N 46°12' W 123°23'0 0.0
2018-Apr-13 18:15N 46°12' W 123°23'0 0.0
2018-Apr-13 17:57N 46°12' W 123°23'0 0.0
2018-Apr-13 17:30N 46°12' W 123°23'0 0.0
2018-Apr-13 16:59N 46°12' W 123°23'0 0.0
2018-Apr-13 16:29N 46°12' W 123°23'0 0.0
2018-Apr-13 16:00N 46°12' W 123°23'0 0.0
2018-Apr-13 15:30N 46°12' W 123°23'0 0.0
2018-Apr-13 15:00N 46°12' W 123°23'0 0.0
2018-Apr-13 14:30N 46°12' W 123°23'0 0.0
2018-Apr-13 14:00N 46°12' W 123°23'0 0.0
2018-Apr-13 13:28N 46°12' W 123°23'0 0.0
2018-Apr-13 12:56N 46°12' W 123°23'0 0.0
2018-Apr-13 12:29N 46°12' W 123°23'0 0.0
2018-Apr-13 11:59N 46°12' W 123°23'0 0.0
2018-Apr-13 11:26N 46°12' W 123°23'0 0.0
2018-Apr-13 10:59N 46°12' W 123°23'0 0.0
2018-Apr-13 10:29N 46°12' W 123°23'0 0.0
2018-Apr-13 09:59N 46°12' W 123°23'0 0.0
2018-Apr-13 09:28N 46°12' W 123°23'0 0.0
2018-Apr-13 08:59N 46°12' W 123°23'0 0.0
2018-Apr-13 08:30N 46°12' W 123°23'0 0.0
2018-Apr-13 08:00N 46°12' W 123°23'0 0.0
2018-Apr-13 07:29N 46°12' W 123°23'0 0.0
2018-Apr-13 06:59N 46°12' W 123°23'0 0.0
2018-Apr-13 06:26N 46°12' W 123°23'0 0.0
2018-Apr-13 06:00N 46°12' W 123°23'0 0.0
2018-Apr-13 05:27N 46°12' W 123°23'0 0.0
2018-Apr-13 05:00N 46°12' W 123°23'0 0.0
2018-Apr-13 04:30N 46°12' W 123°23'0 0.0
2018-Apr-13 03:49N 46°12' W 123°23'0 0.0
2018-Apr-13 03:19N 46°12' W 123°23'0 0.0
2018-Apr-13 02:58N 46°12' W 123°23'0 0.0
2018-Apr-13 02:25N 46°12' W 123°23'0 0.0
2018-Apr-13 01:58N 46°12' W 123°23'0 0.0
2018-Apr-13 01:25N 46°12' W 123°23'0 0.0
2018-Apr-13 00:58N 46°12' W 123°23'0 0.0
2018-Apr-13 00:29N 46°12' W 123°23'0 0.0
2018-Apr-12 23:44N 46°12' W 123°23'0 0.0
2018-Apr-12 23:29N 46°12' W 123°23'0 0.0
2018-Apr-12 22:57N 46°12' W 123°23'0 0.0
2018-Apr-12 22:30N 46°12' W 123°23'0 0.0
2018-Apr-12 22:00N 46°12' W 123°23'0 0.0
2018-Apr-12 21:30N 46°12' W 123°23'0 0.0
2018-Apr-12 21:00N 46°12' W 123°23'0 0.0
2018-Apr-12 20:30N 46°12' W 123°23'0 0.0
2018-Apr-12 20:00N 46°12' W 123°23'0 0.0
2018-Apr-12 19:30N 46°12' W 123°23'0 0.0
2018-Apr-12 18:58N 46°12' W 123°23'0 0.0
2018-Apr-12 18:28N 46°12' W 123°23'0 0.0
2018-Apr-12 17:58N 46°12' W 123°23'0 0.0
2018-Apr-12 17:28N 46°12' W 123°23'0 0.0
2018-Apr-12 17:00N 46°12' W 123°23'0 0.0
2018-Apr-12 16:25N 46°12' W 123°23'0 0.0
2018-Apr-12 16:00N 46°12' W 123°23'0 0.0
2018-Apr-12 15:21N 46°12' W 123°23'0 0.0
2018-Apr-12 14:58N 46°12' W 123°23'0 0.0
2018-Apr-12 14:28N 46°12' W 123°23'0 0.0
2018-Apr-12 13:58N 46°12' W 123°23'0 0.0
2018-Apr-12 13:25N 46°12' W 123°23'0 0.0
2018-Apr-12 12:57N 46°12' W 123°23'0 0.0
2018-Apr-12 12:30N 46°12' W 123°23'0 0.0
2018-Apr-12 12:00N 46°12' W 123°23'0 0.0
2018-Apr-12 11:30N 46°12' W 123°23'0 0.0
2018-Apr-12 10:58N 46°12' W 123°23'0 0.0
2018-Apr-12 10:28N 46°12' W 123°23'0 0.0
2018-Apr-12 09:58N 46°12' W 123°23'0 0.0
2018-Apr-12 09:28N 46°12' W 123°23'0 0.0
2018-Apr-12 08:58N 46°12' W 123°23'0 0.0
2018-Apr-12 08:27N 46°12' W 123°23'0 0.0
2018-Apr-12 08:00N 46°12' W 123°23'0 0.0
2018-Apr-12 07:29N 46°12' W 123°23'0 0.0
2018-Apr-12 06:59N 46°12' W 123°23'0 0.0
2018-Apr-12 06:29N 46°12' W 123°23'0 0.0
2018-Apr-12 06:00N 46°12' W 123°23'0 0.0
2018-Apr-12 05:30N 46°12' W 123°23'0 0.0
2018-Apr-12 05:00N 46°12' W 123°23'0 0.0
2018-Apr-12 04:30N 46°12' W 123°23'0 0.0
2018-Apr-12 03:59N 46°12' W 123°23'0 0.0
2018-Apr-12 03:29N 46°12' W 123°23'0 0.0
2018-Apr-12 02:59N 46°12' W 123°23'0 0.0
2018-Apr-12 02:30N 46°12' W 123°23'0 0.0
2018-Apr-12 01:59N 46°12' W 123°23'0 0.0
2018-Apr-12 01:24N 46°12' W 123°23'0 0.0
2018-Apr-12 00:51N 46°12' W 123°23'0 0.0
2018-Apr-12 00:30N 46°12' W 123°23'0 0.0
2018-Apr-11 23:57N 46°12' W 123°23'0 0.0
2018-Apr-11 23:27N 46°12' W 123°23'0 0.0
2018-Apr-11 23:00N 46°12' W 123°23'0 0.0
2018-Apr-11 22:30N 46°12' W 123°23'0 0.0
2018-Apr-11 21:59N 46°12' W 123°23'0 0.0
2018-Apr-11 21:29N 46°12' W 123°23'0 0.0
2018-Apr-11 20:59N 46°12' W 123°23'0 0.0
2018-Apr-11 20:30N 46°12' W 123°23'0 0.0
2018-Apr-11 20:00N 46°12' W 123°23'0 0.0
2018-Apr-11 19:24N 46°12' W 123°23'0 0.0
2018-Apr-11 18:57N 46°12' W 123°23'0 0.0
2018-Apr-11 18:27N 46°12' W 123°23'0 0.0
2018-Apr-11 17:59N 46°12' W 123°23'0 0.0
2018-Apr-11 17:29N 46°12' W 123°23'0 0.0
2018-Apr-11 16:59N 46°12' W 123°23'0 0.0
2018-Apr-11 16:27N 46°12' W 123°23'0 0.0
2018-Apr-11 15:59N 46°12' W 123°23'0 0.0
2018-Apr-11 15:29N 46°12' W 123°23'0 0.0
2018-Apr-11 14:59N 46°12' W 123°23'0 0.0
2018-Apr-11 14:20N 46°12' W 123°23'0 0.0
2018-Apr-11 13:59N 46°12' W 123°23'0 0.0
2018-Apr-11 13:29N 46°12' W 123°23'0 0.0
2018-Apr-11 12:56N 46°12' W 123°23'0 0.0
2018-Apr-11 12:26N 46°12' W 123°23'0 0.0
2018-Apr-11 11:53N 46°12' W 123°23'0 0.0
2018-Apr-11 11:29N 46°12' W 123°23'0 0.0
2018-Apr-11 10:59N 46°12' W 123°23'0 0.0
2018-Apr-11 10:29N 46°12' W 123°23'0 0.0
2018-Apr-11 09:59N 46°12' W 123°23'0 0.0
2018-Apr-11 09:29N 46°12' W 123°23'0 0.0
2018-Apr-11 08:57N 46°12' W 123°23'0 0.0
2018-Apr-11 08:28N 46°12' W 123°23'0 0.0
2018-Apr-11 07:58N 46°12' W 123°23'0 0.0
2018-Apr-11 07:28N 46°12' W 123°23'0 0.0
2018-Apr-11 06:58N 46°12' W 123°23'0 0.0
2018-Apr-11 06:28N 46°12' W 123°23'0 0.0
2018-Apr-11 05:58N 46°12' W 123°23'0 0.0
2018-Apr-11 05:28N 46°12' W 123°23'0 0.0
2018-Apr-11 04:58N 46°12' W 123°23'0 0.0
2018-Apr-11 04:30N 46°12' W 123°23'0 0.0
2018-Apr-11 04:00N 46°12' W 123°23'0 0.0
2018-Apr-11 03:30N 46°12' W 123°23'0 0.0
2018-Apr-11 02:58N 46°12' W 123°23'0 0.0
2018-Apr-11 02:28N 46°12' W 123°23'0 0.0
2018-Apr-11 01:58N 46°12' W 123°23'0 0.0
2018-Apr-11 01:25N 46°12' W 123°23'0 0.0
2018-Apr-11 00:46N 46°12' W 123°23'0 0.0
2018-Apr-11 00:28N 46°12' W 123°23'0 0.0
2018-Apr-10 23:53N 46°12' W 123°23'0 0.0
2018-Apr-10 23:30N 46°12' W 123°23'0 0.0
2018-Apr-10 23:00N 46°12' W 123°23'0 0.0
2018-Apr-10 22:26N 46°12' W 123°23'0 0.0
2018-Apr-10 21:59N 46°12' W 123°23'0 0.0
2018-Apr-10 21:22N 46°12' W 123°23'0 0.0
2018-Apr-10 21:00N 46°12' W 123°23'0 0.0
2018-Apr-10 20:30N 46°12' W 123°23'0 0.0
2018-Apr-10 20:00N 46°12' W 123°23'0 0.0
2018-Apr-10 19:30N 46°12' W 123°23'0 0.0
2018-Apr-10 18:55N 46°12' W 123°23'0 0.0
2018-Apr-10 18:30N 46°12' W 123°23'0 0.0
2018-Apr-10 17:57N 46°12' W 123°23'0 0.0
2018-Apr-10 17:27N 46°12' W 123°23'0 0.0
2018-Apr-10 16:57N 46°12' W 123°23'0 0.0
2018-Apr-10 16:30N 46°12' W 123°23'0 0.0
2018-Apr-10 15:55N 46°12' W 123°23'0 0.0
2018-Apr-10 15:25N 46°12' W 123°23'0 0.0
2018-Apr-10 15:00N 46°12' W 123°23'0 0.0
2018-Apr-10 14:30N 46°12' W 123°23'0 0.0
2018-Apr-10 14:00N 46°12' W 123°23'0 0.0
2018-Apr-10 13:27N 46°12' W 123°23'0 0.0
2018-Apr-10 12:59N 46°12' W 123°23'0 0.0
2018-Apr-10 12:29N 46°12' W 123°23'0 0.0
2018-Apr-10 11:56N 46°12' W 123°23'0 0.0
2018-Apr-10 11:29N 46°12' W 123°23'0 0.0
2018-Apr-10 10:56N 46°12' W 123°23'0 0.0
2018-Apr-10 10:28N 46°12' W 123°23'0 0.0
2018-Apr-10 09:54N 46°12' W 123°23'0 0.0
2018-Apr-10 09:30N 46°12' W 123°23'0 0.0
2018-Apr-10 08:53N 46°12' W 123°23'0 0.0
2018-Apr-10 08:26N 46°12' W 123°23'0 0.0
2018-Apr-10 08:00N 46°12' W 123°23'0 0.0
2018-Apr-10 07:24N 46°12' W 123°23'0 0.0
2018-Apr-10 07:00N 46°12' W 123°23'0 0.0
2018-Apr-10 06:30N 46°12' W 123°23'0 0.0
2018-Apr-10 05:55N 46°12' W 123°23'0 0.0
2018-Apr-10 05:28N 46°12' W 123°23'0 0.0
2018-Apr-10 04:57N 46°12' W 123°23'0 0.0
2018-Apr-10 04:24N 46°12' W 123°23'0 0.0
2018-Apr-10 03:52N 46°12' W 123°23'0 0.0
2018-Apr-10 03:28N 46°12' W 123°23'0 0.0
2018-Apr-10 02:59N 46°12' W 123°23'0 0.0
2018-Apr-10 02:29N 46°12' W 123°23'0 0.0
2018-Apr-10 02:00N 46°12' W 123°23'0 0.0
2018-Apr-10 01:26N 46°12' W 123°23'0 0.0
2018-Apr-10 00:58N 46°12' W 123°23'0 0.0
2018-Apr-10 00:29N 46°12' W 123°23'0 0.0
2018-Apr-09 23:59N 46°12' W 123°23'0 0.0
2018-Apr-09 23:29N 46°12' W 123°23'0 0.0
2018-Apr-09 22:56N 46°12' W 123°23'0 0.0
2018-Apr-09 22:28N 46°12' W 123°23'0 0.0
2018-Apr-09 21:38N 46°12' W 123°23'0 0.0
2018-Apr-09 21:23N 46°12' W 123°23'0 0.0
2018-Apr-09 21:00N 46°12' W 123°23'0 0.0
2018-Apr-09 20:29N 46°12' W 123°23'0 0.0
2018-Apr-09 19:56N 46°12' W 123°23'0 0.0
2018-Apr-09 19:15N 46°12' W 123°23'0 0.0
2018-Apr-09 18:57N 46°12' W 123°23'0 0.0
2018-Apr-09 18:30N 46°12' W 123°23'0 0.0
2018-Apr-09 17:47N 46°12' W 123°23'0 0.0
2018-Apr-09 17:16N 46°12' W 123°23'0 0.0
2018-Apr-09 16:49N 46°12' W 123°23'0 0.0
2018-Apr-09 16:28N 46°12' W 123°23'0 0.0
2018-Apr-09 16:00N 46°12' W 123°23'0 0.0
2018-Apr-09 15:29N 46°12' W 123°23'0 0.0
2018-Apr-09 14:58N 46°12' W 123°23'0 0.0
2018-Apr-09 14:24N 46°12' W 123°23'0 0.0
2018-Apr-09 13:56N 46°12' W 123°23'0 0.0
2018-Apr-09 13:29N 46°12' W 123°23'0 0.0
2018-Apr-09 12:56N 46°12' W 123°23'0 0.0
2018-Apr-09 12:15N 46°12' W 123°23'0 0.0
2018-Apr-09 11:39N 46°12' W 123°23'0 0.0
2018-Apr-09 11:30N 46°12' W 123°23'0 0.0
2018-Apr-09 10:45N 46°12' W 123°23'0 0.0
2018-Apr-09 10:28N 46°12' W 123°23'  
Track history (hours):
 
Tides and Currents Weather Stations Pressure Air Temp Water Temp Dewpoint Dewpoint Depression Visibility Wind Speed Wind Dir Waves Ship Positions

Jack Brusco

Owner: Brusco Tug & Barge, Inc., Longview, WA. More information available from US FCC via Universal Licensing System and Coast Guard Vessel Documentation Center.

Last reported at 2018-Apr-19 10:01 UTC. Time now 2018-Apr-19 10:24 UTC.
Position N 46°51' W 124°16'.

Length 36 m; draft 5.2 m.

Type: Tug. MMSI: 3699086.

Date/timePositionNaut miles runAvg speedWind from/ knotsBaromVisibWave heightAir tempDewpointWater temp
2018-Apr-19 10:01N 46°51' W 124°16'4 7.5
2018-Apr-19 09:31N 46°54' W 124°12'3 5.3
2018-Apr-19 09:00N 46°55' W 124°09'1 0.0
2018-Apr-17 19:58N 46°55' W 124°10'3 3.3
2018-Apr-17 19:10N 46°53' W 124°13'1 3.1
2018-Apr-17 19:01N 46°53' W 124°13'2 3.5
2018-Apr-17 18:28N 46°52' W 124°15'2 3.6
2018-Apr-17 18:01N 46°51' W 124°17'2 3.2
2018-Apr-17 17:29N 46°50' W 124°19'1 2.8
2018-Apr-17 17:00N 46°49' W 124°21'2 2.9
2018-Apr-17 16:15N 46°47' W 124°23'1 2.9
2018-Apr-17 16:01N 46°47' W 124°24'2 3.0
2018-Apr-17 15:30N 46°46' W 124°26'2 3.9
2018-Apr-17 15:01N 46°44' W 124°27'1 3.0
2018-Apr-17 14:30N 46°43' W 124°26'1 2.5
2018-Apr-17 14:01N 46°42' W 124°26'1 2.6
2018-Apr-17 13:30N 46°40' W 124°25'2 3.2
2018-Apr-17 12:53N 46°38' W 124°25'2 6.0
2018-Apr-17 12:31N 46°36' W 124°24'3 6.7
2018-Apr-17 12:01N 46°33' W 124°23'4 7.0
2018-Apr-17 11:30N 46°29' W 124°22'4 6.9
2018-Apr-17 10:52N 46°25' W 124°21'3 7.1
2018-Apr-17 10:30N 46°23' W 124°20'3 6.8
2018-Apr-17 10:00N 46°19' W 124°19'3 6.5
2018-Apr-17 09:30N 46°16' W 124°18'3 4.9
2018-Apr-17 08:51N 46°13' W 124°16'2 5.3
2018-Apr-17 08:31N 46°13' W 124°13'3 5.1
2018-Apr-17 07:59N 46°13' W 124°09'3 6.1
2018-Apr-17 07:31N 46°15' W 124°06'3 4.9
2018-Apr-17 06:50N 46°15' W 124°01'2 6.2
2018-Apr-17 06:31N 46°14' W 123°59'9 7.9
2018-Apr-17 05:21N 46°13' W 123°46'411.2
2018-Apr-17 05:01N 46°15' W 123°41'612.1
2018-Apr-17 04:30N 46°16' W 123°33'510.3
2018-Apr-17 04:00N 46°14' W 123°26'611.4
2018-Apr-17 03:31N 46°09' W 123°21'612.5
2018-Apr-17 03:01N 46°10' W 123°13'611.4
2018-Apr-17 02:30N 46°10' W 123°05'510.6
2018-Apr-17 02:00N 46°07' W 122°58'0 0.3
2018-Apr-17 01:30N 46°07' W 122°58'1 1.0
2018-Apr-17 01:00N 46°06' W 122°58'1 0.9
2018-Apr-17 00:23N 46°06' W 122°57'2 5.6
2018-Apr-17 00:00N 46°08' W 122°60'4 6.5
2018-Apr-16 23:24N 46°10' W 123°04'3 6.9
2018-Apr-16 23:00N 46°11' W 123°08'3 6.6
2018-Apr-16 22:30N 46°11' W 123°12'4 7.1
2018-Apr-16 22:00N 46°09' W 123°17'4 7.4
2018-Apr-16 21:31N 46°09' W 123°22'4 7.1
2018-Apr-16 21:00N 46°11' W 123°26'5 7.2
2018-Apr-16 20:21N 46°16' W 123°28'3 7.4
2018-Apr-16 20:00N 46°16' W 123°31'4 8.1
2018-Apr-16 19:28N 46°16' W 123°38'4 8.2
2018-Apr-16 19:01N 46°14' W 123°43'4 8.8
2018-Apr-16 18:30N 46°12' W 123°48'4 8.8
2018-Apr-16 18:01N 46°11' W 123°55'5 9.0
2018-Apr-16 17:31N 46°14' W 123°60'3 6.6
2018-Apr-16 17:01N 46°15' W 124°04'3 5.4
2018-Apr-16 16:22N 46°13' W 124°08'2 3.5
2018-Apr-16 15:54N 46°13' W 124°10'1 2.4
2018-Apr-16 15:30N 46°13' W 124°12'1 2.2
2018-Apr-16 15:01N 46°13' W 124°13'1 1.9
2018-Apr-16 14:31N 46°13' W 124°15'1 2.7
2018-Apr-16 14:00N 46°13' W 124°17'3 5.5
2018-Apr-16 13:31N 46°16' W 124°19'3 6.1
2018-Apr-16 13:01N 46°19' W 124°19'3 6.2
2018-Apr-16 12:30N 46°22' W 124°20'4 7.2
2018-Apr-16 12:00N 46°25' W 124°21'4 7.2
2018-Apr-16 11:31N 46°29' W 124°22'4 7.4
2018-Apr-16 11:00N 46°32' W 124°23'4 7.2
2018-Apr-16 10:31N 46°36' W 124°24'4 7.6
2018-Apr-16 10:01N 46°40' W 124°25'4 7.3
2018-Apr-16 09:30N 46°43' W 124°26'3 6.3
2018-Apr-16 09:01N 46°46' W 124°25'3 6.2
2018-Apr-16 08:31N 46°48' W 124°22'3 6.1
2018-Apr-16 08:00N 46°50' W 124°18'3 5.9
2018-Apr-16 07:30N 46°52' W 124°15'3 6.4
2018-Apr-16 07:01N 46°54' W 124°12'2 3.7
2018-Apr-16 06:30N 46°55' W 124°09'10 0.7
2018-Apr-15 15:20N 46°58' W 123°55'9 0.7
2018-Apr-15 03:26N 46°55' W 124°07'3 6.9
2018-Apr-15 03:01N 46°55' W 124°11'3 6.2
2018-Apr-15 02:30N 46°52' W 124°14'5 9.2
2018-Apr-15 02:00N 46°50' W 124°20'5 9.4
2018-Apr-15 01:30N 46°46' W 124°25'4 8.8
2018-Apr-15 01:01N 46°42' W 124°25'5 9.5
2018-Apr-15 00:30N 46°37' W 124°25'4 8.7
2018-Apr-15 00:01N 46°33' W 124°24'4 8.9
2018-Apr-14 23:31N 46°29' W 124°22'5 9.6
2018-Apr-14 23:01N 46°24' W 124°21'5 9.6
2018-Apr-14 22:30N 46°19' W 124°19'5 9.3
2018-Apr-14 22:01N 46°15' W 124°17'4 7.4
2018-Apr-14 21:31N 46°13' W 124°13'3 5.7
2018-Apr-14 21:00N 46°13' W 124°09'2 4.5
2018-Apr-14 20:31N 46°15' W 124°06'3 5.3
2018-Apr-14 20:00N 46°15' W 124°03'4 7.3
2018-Apr-14 19:31N 46°14' W 123°58'4 8.3
2018-Apr-14 19:00N 46°11' W 123°53'4 8.4
2018-Apr-14 18:30N 46°13' W 123°47'4 8.9
2018-Apr-14 18:00N 46°15' W 123°42'510.0
2018-Apr-14 17:30N 46°15' W 123°34'510.2
2018-Apr-14 17:00N 46°15' W 123°27'4 8.2
2018-Apr-14 16:31N 46°12' W 123°23'0 0.1
2018-Apr-14 16:01N 46°12' W 123°23'0 0.2
2018-Apr-14 15:31N 46°12' W 123°23'0 0.0
2018-Apr-14 14:57N 46°12' W 123°23'0 0.0
2018-Apr-14 14:29N 46°12' W 123°23'0 0.0
2018-Apr-14 13:59N 46°12' W 123°23'0 0.0
2018-Apr-14 13:30N 46°12' W 123°23'0 0.0
2018-Apr-14 12:57N 46°12' W 123°23'0 0.0
2018-Apr-14 12:30N 46°12' W 123°23'0 0.0
2018-Apr-14 12:00N 46°12' W 123°23'0 0.0
2018-Apr-14 11:30N 46°12' W 123°23'0 0.0
2018-Apr-14 10:59N 46°12' W 123°23'0 0.0
2018-Apr-14 10:02N 46°12' W 123°23'0 0.0
2018-Apr-14 09:59N 46°12' W 123°23'0 0.0
2018-Apr-14 09:29N 46°12' W 123°23'0 0.0
2018-Apr-14 08:53N 46°12' W 123°23'0 0.0
2018-Apr-14 08:24N 46°12' W 123°23'0 0.0
2018-Apr-14 07:57N 46°12' W 123°23'0 0.0
2018-Apr-14 07:30N 46°12' W 123°23'0 0.0
2018-Apr-14 07:00N 46°12' W 123°23'0 0.0
2018-Apr-14 06:27N 46°12' W 123°23'0 0.0
2018-Apr-14 05:42N 46°12' W 123°23'0 0.0
2018-Apr-14 05:30N 46°12' W 123°23'0 0.0
2018-Apr-14 04:54N 46°12' W 123°23'0 0.0
2018-Apr-14 04:22N 46°12' W 123°23'0 0.0
2018-Apr-14 03:46N 46°12' W 123°23'0 0.0
2018-Apr-14 03:25N 46°12' W 123°23'0 0.0
2018-Apr-14 02:55N 46°12' W 123°23'0 0.0
2018-Apr-14 02:28N 46°12' W 123°23'0 0.0
2018-Apr-14 01:59N 46°12' W 123°23'0 0.0
2018-Apr-14 01:21N 46°12' W 123°23'0 0.0
2018-Apr-14 00:57N 46°12' W 123°23'0 0.0
2018-Apr-14 00:29N 46°12' W 123°23'0 0.0
2018-Apr-13 23:59N 46°12' W 123°23'0 0.0
2018-Apr-13 22:50N 46°12' W 123°23'0 0.0
2018-Apr-13 22:29N 46°12' W 123°23'0 0.0
2018-Apr-13 21:55N 46°12' W 123°23'0 0.0
2018-Apr-13 21:28N 46°12' W 123°23'0 0.0
2018-Apr-13 20:55N 46°12' W 123°23'0 0.0
2018-Apr-13 20:28N 46°12' W 123°23'0 0.0
2018-Apr-13 19:58N 46°12' W 123°23'0 0.0
2018-Apr-13 19:28N 46°12' W 123°23'0 0.0
2018-Apr-13 18:58N 46°12' W 123°23'0 0.0
2018-Apr-13 18:15N 46°12' W 123°23'0 0.0
2018-Apr-13 17:57N 46°12' W 123°23'0 0.0
2018-Apr-13 17:30N 46°12' W 123°23'0 0.0
2018-Apr-13 16:59N 46°12' W 123°23'0 0.0
2018-Apr-13 16:29N 46°12' W 123°23'0 0.0
2018-Apr-13 16:00N 46°12' W 123°23'0 0.0
2018-Apr-13 15:30N 46°12' W 123°23'0 0.0
2018-Apr-13 15:00N 46°12' W 123°23'0 0.0
2018-Apr-13 14:30N 46°12' W 123°23'0 0.0
2018-Apr-13 14:00N 46°12' W 123°23'0 0.0
2018-Apr-13 13:28N 46°12' W 123°23'0 0.0
2018-Apr-13 12:56N 46°12' W 123°23'0 0.0
2018-Apr-13 12:29N 46°12' W 123°23'0 0.0
2018-Apr-13 11:59N 46°12' W 123°23'0 0.0
2018-Apr-13 11:26N 46°12' W 123°23'0 0.0
2018-Apr-13 10:59N 46°12' W 123°23'0 0.0
2018-Apr-13 10:29N 46°12' W 123°23'0 0.0
2018-Apr-13 09:59N 46°12' W 123°23'0 0.0
2018-Apr-13 09:28N 46°12' W 123°23'0 0.0
2018-Apr-13 08:59N 46°12' W 123°23'0 0.0
2018-Apr-13 08:30N 46°12' W 123°23'0 0.0
2018-Apr-13 08:00N 46°12' W 123°23'0 0.0
2018-Apr-13 07:29N 46°12' W 123°23'0 0.0
2018-Apr-13 06:59N 46°12' W 123°23'0 0.0
2018-Apr-13 06:26N 46°12' W 123°23'0 0.0
2018-Apr-13 06:00N 46°12' W 123°23'0 0.0
2018-Apr-13 05:27N 46°12' W 123°23'0 0.0
2018-Apr-13 05:00N 46°12' W 123°23'0 0.0
2018-Apr-13 04:30N 46°12' W 123°23'0 0.0
2018-Apr-13 03:49N 46°12' W 123°23'0 0.0
2018-Apr-13 03:19N 46°12' W 123°23'0 0.0
2018-Apr-13 02:58N 46°12' W 123°23'0 0.0
2018-Apr-13 02:25N 46°12' W 123°23'0 0.0
2018-Apr-13 01:58N 46°12' W 123°23'0 0.0
2018-Apr-13 01:25N 46°12' W 123°23'0 0.0
2018-Apr-13 00:58N 46°12' W 123°23'0 0.0
2018-Apr-13 00:29N 46°12' W 123°23'0 0.0
2018-Apr-12 23:44N 46°12' W 123°23'0 0.0
2018-Apr-12 23:29N 46°12' W 123°23'0 0.0
2018-Apr-12 22:57N 46°12' W 123°23'0 0.0
2018-Apr-12 22:30N 46°12' W 123°23'0 0.0
2018-Apr-12 22:00N 46°12' W 123°23'0 0.0
2018-Apr-12 21:30N 46°12' W 123°23'0 0.0
2018-Apr-12 21:00N 46°12' W 123°23'0 0.0
2018-Apr-12 20:30N 46°12' W 123°23'0 0.0
2018-Apr-12 20:00N 46°12' W 123°23'0 0.0
2018-Apr-12 19:30N 46°12' W 123°23'0 0.0
2018-Apr-12 18:58N 46°12' W 123°23'0 0.0
2018-Apr-12 18:28N 46°12' W 123°23'0 0.0
2018-Apr-12 17:58N 46°12' W 123°23'0 0.0
2018-Apr-12 17:28N 46°12' W 123°23'0 0.0
2018-Apr-12 17:00N 46°12' W 123°23'0 0.0
2018-Apr-12 16:25N 46°12' W 123°23'0 0.0
2018-Apr-12 16:00N 46°12' W 123°23'0 0.0
2018-Apr-12 15:21N 46°12' W 123°23'0 0.0
2018-Apr-12 14:58N 46°12' W 123°23'0 0.0
2018-Apr-12 14:28N 46°12' W 123°23'0 0.0
2018-Apr-12 13:58N 46°12' W 123°23'0 0.0
2018-Apr-12 13:25N 46°12' W 123°23'0 0.0
2018-Apr-12 12:57N 46°12' W 123°23'0 0.0
2018-Apr-12 12:30N 46°12' W 123°23'0 0.0
2018-Apr-12 12:00N 46°12' W 123°23'0 0.0
2018-Apr-12 11:30N 46°12' W 123°23'0 0.0
2018-Apr-12 10:58N 46°12' W 123°23'0 0.0
2018-Apr-12 10:28N 46°12' W 123°23'0 0.0
2018-Apr-12 09:58N 46°12' W 123°23'0 0.0
2018-Apr-12 09:28N 46°12' W 123°23'0 0.0
2018-Apr-12 08:58N 46°12' W 123°23'0 0.0
2018-Apr-12 08:27N 46°12' W 123°23'0 0.0
2018-Apr-12 08:00N 46°12' W 123°23'0 0.0
2018-Apr-12 07:29N 46°12' W 123°23'0 0.0
2018-Apr-12 06:59N 46°12' W 123°23'0 0.0
2018-Apr-12 06:29N 46°12' W 123°23'0 0.0
2018-Apr-12 06:00N 46°12' W 123°23'0 0.0
2018-Apr-12 05:30N 46°12' W 123°23'0 0.0
2018-Apr-12 05:00N 46°12' W 123°23'0 0.0
2018-Apr-12 04:30N 46°12' W 123°23'0 0.0
2018-Apr-12 03:59N 46°12' W 123°23'0 0.0
2018-Apr-12 03:29N 46°12' W 123°23'0 0.0
2018-Apr-12 02:59N 46°12' W 123°23'0 0.0
2018-Apr-12 02:30N 46°12' W 123°23'0 0.0
2018-Apr-12 01:59N 46°12' W 123°23'0 0.0
2018-Apr-12 01:24N 46°12' W 123°23'0 0.0
2018-Apr-12 00:51N 46°12' W 123°23'0 0.0
2018-Apr-12 00:30N 46°12' W 123°23'0 0.0
2018-Apr-11 23:57N 46°12' W 123°23'0 0.0
2018-Apr-11 23:27N 46°12' W 123°23'0 0.0
2018-Apr-11 23:00N 46°12' W 123°23'0 0.0
2018-Apr-11 22:30N 46°12' W 123°23'0 0.0
2018-Apr-11 21:59N 46°12' W 123°23'0 0.0
2018-Apr-11 21:29N 46°12' W 123°23'0 0.0
2018-Apr-11 20:59N 46°12' W 123°23'0 0.0
2018-Apr-11 20:30N 46°12' W 123°23'0 0.0
2018-Apr-11 20:00N 46°12' W 123°23'0 0.0
2018-Apr-11 19:24N 46°12' W 123°23'0 0.0
2018-Apr-11 18:57N 46°12' W 123°23'0 0.0
2018-Apr-11 18:27N 46°12' W 123°23'0 0.0
2018-Apr-11 17:59N 46°12' W 123°23'0 0.0
2018-Apr-11 17:29N 46°12' W 123°23'0 0.0
2018-Apr-11 16:59N 46°12' W 123°23'0 0.0
2018-Apr-11 16:27N 46°12' W 123°23'0 0.0
2018-Apr-11 15:59N 46°12' W 123°23'0 0.0
2018-Apr-11 15:29N 46°12' W 123°23'0 0.0
2018-Apr-11 14:59N 46°12' W 123°23'0 0.0
2018-Apr-11 14:20N 46°12' W 123°23'0 0.0
2018-Apr-11 13:59N 46°12' W 123°23'0 0.0
2018-Apr-11 13:29N 46°12' W 123°23'0 0.0
2018-Apr-11 12:56N 46°12' W 123°23'0 0.0
2018-Apr-11 12:26N 46°12' W 123°23'0 0.0
2018-Apr-11 11:53N 46°12' W 123°23'0 0.0
2018-Apr-11 11:29N 46°12' W 123°23'0 0.0
2018-Apr-11 10:59N 46°12' W 123°23'0 0.0
2018-Apr-11 10:29N 46°12' W 123°23'0 0.0
2018-Apr-11 09:59N 46°12' W 123°23'0 0.0
2018-Apr-11 09:29N 46°12' W 123°23'0 0.0
2018-Apr-11 08:57N 46°12' W 123°23'0 0.0
2018-Apr-11 08:28N 46°12' W 123°23'0 0.0
2018-Apr-11 07:58N 46°12' W 123°23'0 0.0
2018-Apr-11 07:28N 46°12' W 123°23'0 0.0
2018-Apr-11 06:58N 46°12' W 123°23'0 0.0
2018-Apr-11 06:28N 46°12' W 123°23'0 0.0
2018-Apr-11 05:58N 46°12' W 123°23'0 0.0
2018-Apr-11 05:28N 46°12' W 123°23'0 0.0
2018-Apr-11 04:58N 46°12' W 123°23'0 0.0
2018-Apr-11 04:30N 46°12' W 123°23'0 0.0
2018-Apr-11 04:00N 46°12' W 123°23'0 0.0
2018-Apr-11 03:30N 46°12' W 123°23'0 0.0
2018-Apr-11 02:58N 46°12' W 123°23'0 0.0
2018-Apr-11 02:28N 46°12' W 123°23'0 0.0
2018-Apr-11 01:58N 46°12' W 123°23'0 0.0
2018-Apr-11 01:25N 46°12' W 123°23'0 0.0
2018-Apr-11 00:46N 46°12' W 123°23'0 0.0
2018-Apr-11 00:28N 46°12' W 123°23'0 0.0
2018-Apr-10 23:53N 46°12' W 123°23'0 0.0
2018-Apr-10 23:30N 46°12' W 123°23'0 0.0
2018-Apr-10 23:00N 46°12' W 123°23'0 0.0
2018-Apr-10 22:26N 46°12' W 123°23'0 0.0
2018-Apr-10 21:59N 46°12' W 123°23'0 0.0
2018-Apr-10 21:22N 46°12' W 123°23'0 0.0
2018-Apr-10 21:00N 46°12' W 123°23'0 0.0
2018-Apr-10 20:30N 46°12' W 123°23'0 0.0
2018-Apr-10 20:00N 46°12' W 123°23'0 0.0
2018-Apr-10 19:30N 46°12' W 123°23'0 0.0
2018-Apr-10 18:55N 46°12' W 123°23'0 0.0
2018-Apr-10 18:30N 46°12' W 123°23'0 0.0
2018-Apr-10 17:57N 46°12' W 123°23'0 0.0
2018-Apr-10 17:27N 46°12' W 123°23'0 0.0
2018-Apr-10 16:57N 46°12' W 123°23'0 0.0
2018-Apr-10 16:30N 46°12' W 123°23'0 0.0
2018-Apr-10 15:55N 46°12' W 123°23'0 0.0
2018-Apr-10 15:25N 46°12' W 123°23'0 0.0
2018-Apr-10 15:00N 46°12' W 123°23'0 0.0
2018-Apr-10 14:30N 46°12' W 123°23'0 0.0
2018-Apr-10 14:00N 46°12' W 123°23'0 0.0
2018-Apr-10 13:27N 46°12' W 123°23'0 0.0
2018-Apr-10 12:59N 46°12' W 123°23'0 0.0
2018-Apr-10 12:29N 46°12' W 123°23'0 0.0
2018-Apr-10 11:56N 46°12' W 123°23'0 0.0
2018-Apr-10 11:29N 46°12' W 123°23'0 0.0
2018-Apr-10 10:56N 46°12' W 123°23'0 0.0
2018-Apr-10 10:28N 46°12' W 123°23'0 0.0
2018-Apr-10 09:54N 46°12' W 123°23'0 0.0
2018-Apr-10 09:30N 46°12' W 123°23'0 0.0
2018-Apr-10 08:53N 46°12' W 123°23'0 0.0
2018-Apr-10 08:26N 46°12' W 123°23'0 0.0
2018-Apr-10 08:00N 46°12' W 123°23'0 0.0
2018-Apr-10 07:24N 46°12' W 123°23'0 0.0
2018-Apr-10 07:00N 46°12' W 123°23'0 0.0
2018-Apr-10 06:30N 46°12' W 123°23'0 0.0
2018-Apr-10 05:55N 46°12' W 123°23'0 0.0
2018-Apr-10 05:28N 46°12' W 123°23'0 0.0
2018-Apr-10 04:57N 46°12' W 123°23'0 0.0
2018-Apr-10 04:24N 46°12' W 123°23'0 0.0
2018-Apr-10 03:52N 46°12' W 123°23'0 0.0
2018-Apr-10 03:28N 46°12' W 123°23'0 0.0
2018-Apr-10 02:59N 46°12' W 123°23'0 0.0
2018-Apr-10 02:29N 46°12' W 123°23'0 0.0
2018-Apr-10 02:00N 46°12' W 123°23'0 0.0
2018-Apr-10 01:26N 46°12' W 123°23'0 0.0
2018-Apr-10 00:58N 46°12' W 123°23'0 0.0
2018-Apr-10 00:29N 46°12' W 123°23'0 0.0
2018-Apr-09 23:59N 46°12' W 123°23'0 0.0
2018-Apr-09 23:29N 46°12' W 123°23'0 0.0
2018-Apr-09 22:56N 46°12' W 123°23'0 0.0
2018-Apr-09 22:28N 46°12' W 123°23'0 0.0
2018-Apr-09 21:38N 46°12' W 123°23'0 0.0
2018-Apr-09 21:23N 46°12' W 123°23'0 0.0
2018-Apr-09 21:00N 46°12' W 123°23'0 0.0
2018-Apr-09 20:29N 46°12' W 123°23'0 0.0
2018-Apr-09 19:56N 46°12' W 123°23'0 0.0
2018-Apr-09 19:15N 46°12' W 123°23'0 0.0
2018-Apr-09 18:57N 46°12' W 123°23'0 0.0
2018-Apr-09 18:30N 46°12' W 123°23'0 0.0
2018-Apr-09 17:47N 46°12' W 123°23'0 0.0
2018-Apr-09 17:16N 46°12' W 123°23'0 0.0
2018-Apr-09 16:49N 46°12' W 123°23'0 0.0
2018-Apr-09 16:28N 46°12' W 123°23'0 0.0
2018-Apr-09 16:00N 46°12' W 123°23'0 0.0
2018-Apr-09 15:29N 46°12' W 123°23'0 0.0
2018-Apr-09 14:58N 46°12' W 123°23'0 0.0
2018-Apr-09 14:24N 46°12' W 123°23'0 0.0
2018-Apr-09 13:56N 46°12' W 123°23'0 0.0
2018-Apr-09 13:29N 46°12' W 123°23'0 0.0
2018-Apr-09 12:56N 46°12' W 123°23'0 0.0
2018-Apr-09 12:15N 46°12' W 123°23'0 0.0
2018-Apr-09 11:39N 46°12' W 123°23'0 0.0
2018-Apr-09 11:30N 46°12' W 123°23'0 0.0
2018-Apr-09 10:45N 46°12' W 123°23'0 0.0
2018-Apr-09 10:28N 46°12' W 123°23'  

Dump ship's entire track history